Terminal Aerodrome Forecast
Issued by NWS Sterling, VA

Current Version | Previous Version | Text Only | Print | Product List | Glossary Off
Versions: 1 2 3 4 5 6 7 8 9 10 11 12 13 14 15 16 17 18 19

000
FTUS41 KLWX 262300
TAFMRB
TAF
KMRB 262336Z 2700/2724 01009KT 2SM -SN OVC018
     FM270900 33008KT 2SM -SN OVC015
     FM271400 32010KT P6SM OVC015
     FM271900 32012G20KT P6SM BKN025
     FM272200 31014G23KT P6SM BKN045=

USA.gov is the U.S. government's official web portal to all federal, state and local government web resources and services.